createdAt,value
2019-04-25T00:02:27.572Z,11.30
2019-04-25T00:04:57.279Z,11.30
2019-04-25T00:07:27.051Z,11.40
2019-04-25T00:09:56.849Z,11.40
2019-04-25T00:12:27.252Z,11.40
2019-04-25T00:14:56.924Z,11.40
2019-04-25T00:17:27.508Z,11.30
2019-04-25T00:19:57.544Z,11.30
2019-04-25T00:22:28.813Z,11.40
2019-04-25T00:25:15.257Z,11.40
2019-04-25T00:27:35.548Z,11.40
2019-04-25T00:30:07.629Z,11.40
2019-04-25T00:32:37.347Z,11.40
2019-04-25T00:35:07.285Z,11.40
2019-04-25T00:37:36.921Z,11.50
2019-04-25T00:40:08.428Z,11.50
2019-04-25T00:42:38.064Z,11.50
2019-04-25T00:45:08.697Z,11.60
2019-04-25T00:47:38.331Z,11.50
2019-04-25T00:50:08.163Z,11.50
2019-04-25T00:52:37.803Z,11.60
2019-04-25T00:55:07.800Z,11.90
2019-04-25T00:57:39.106Z,12.10
2019-04-25T01:00:32.584Z,12.10
2019-04-25T01:03:04.025Z,12.30
2019-04-25T01:05:33.659Z,12.30
2019-04-25T01:08:03.628Z,12.30
2019-04-25T01:10:33.327Z,12.30
2019-04-25T01:13:03.127Z,12.20
2019-04-25T01:15:33.041Z,12.20
2019-04-25T01:18:02.904Z,12.30
2019-04-25T01:20:32.506Z,12.30
2019-04-25T01:23:03.711Z,12.40
2019-04-25T01:25:41.032Z,12.50
2019-04-25T01:28:05.048Z,12.50
2019-04-25T01:30:34.720Z,12.30
2019-04-25T01:33:05.124Z,12.40
2019-04-25T01:35:39.261Z,12.50
2019-04-25T01:38:13.865Z,12.60
2019-04-25T01:41:03.202Z,12.70
2019-04-25T01:43:52.762Z,12.70
2019-04-25T01:46:20.987Z,12.70
2019-04-25T01:48:50.690Z,12.60
2019-04-25T01:51:20.527Z,12.60
2019-04-25T01:53:50.539Z,12.60
2019-04-25T01:56:20.224Z,12.60
2019-04-25T01:58:49.860Z,12.60
2019-04-25T02:01:19.809Z,12.60
2019-04-25T02:03:49.500Z,12.60
2019-04-25T02:06:19.102Z,12.50
2019-04-25T02:08:48.720Z,12.50
2019-04-25T02:11:24.016Z,12.60
2019-04-25T02:13:54.927Z,12.60
2019-04-25T02:16:25.301Z,12.50
2019-04-25T02:18:55.523Z,12.50
2019-04-25T02:21:26.085Z,12.50
2019-04-25T02:23:56.615Z,12.50
2019-04-25T02:26:26.338Z,12.40
2019-04-25T02:28:56.488Z,12.30
2019-04-25T02:31:26.862Z,12.20
2019-04-25T02:33:57.843Z,12.20
2019-04-25T02:36:27.969Z,12.10
2019-04-25T02:39:01.216Z,12.00
2019-04-25T02:41:28.952Z,11.90
2019-04-25T02:44:03.754Z,11.80
2019-04-25T02:46:49.456Z,11.70
2019-04-25T02:49:39.460Z,11.80
2019-04-25T02:52:15.238Z,11.70
2019-04-25T02:54:44.912Z,11.60
2019-04-25T02:57:14.819Z,11.60
2019-04-25T02:59:45.112Z,11.60
2019-04-25T03:02:15.655Z,11.60
2019-04-25T03:04:45.356Z,11.70
2019-04-25T03:07:17.479Z,11.70
2019-04-25T03:09:46.570Z,11.70
2019-04-25T03:12:29.789Z,11.60
2019-04-25T03:14:47.765Z,11.40
2019-04-25T03:17:17.499Z,11.30
2019-04-25T03:19:54.320Z,11.20
2019-04-25T03:22:28.402Z,11.20
2019-04-25T03:24:58.711Z,11.20
2019-04-25T03:27:29.496Z,11.20
2019-04-25T03:29:59.743Z,11.10
2019-04-25T03:32:29.394Z,10.90
2019-04-25T03:34:59.145Z,10.90
2019-04-25T03:37:28.748Z,11.00
2019-04-25T03:39:58.372Z,11.00
2019-04-25T03:42:28.111Z,11.00
2019-04-25T03:44:57.743Z,11.00
2019-04-25T03:47:27.418Z,11.10
2019-04-25T03:49:57.054Z,11.00
2019-04-25T03:52:26.725Z,11.10
2019-04-25T03:54:56.820Z,11.10
2019-04-25T03:57:26.537Z,11.30
2019-04-25T03:59:56.221Z,11.30
2019-04-25T04:02:25.841Z,11.40
2019-04-25T04:04:55.591Z,11.30
2019-04-25T04:07:25.248Z,11.30
2019-04-25T04:09:55.255Z,11.20
2019-04-25T04:12:25.004Z,11.20
2019-04-25T04:14:54.597Z,11.20
2019-04-25T04:17:34.820Z,11.10
2019-04-25T04:20:07.029Z,11.10
2019-04-25T04:22:43.865Z,11.00
2019-04-25T04:25:15.973Z,11.00
2019-04-25T04:27:45.641Z,11.10
2019-04-25T04:30:16.395Z,11.10
2019-04-25T04:32:46.121Z,11.20
2019-04-25T04:35:16.174Z,11.20
2019-04-25T04:37:46.962Z,11.30
2019-04-25T04:40:17.651Z,11.40
2019-04-25T04:42:47.943Z,11.40
2019-04-25T04:45:18.265Z,11.40
2019-04-25T04:47:47.851Z,11.50
2019-04-25T04:50:17.551Z,11.50
2019-04-25T04:52:47.153Z,11.50
2019-04-25T04:55:17.607Z,11.50
2019-04-25T04:57:48.222Z,11.60
2019-04-25T05:00:18.665Z,11.60
2019-04-25T05:02:49.922Z,11.50
2019-04-25T05:05:24.799Z,11.50
2019-04-25T05:07:58.868Z,11.40
2019-04-25T05:10:28.571Z,11.50
2019-04-25T05:12:59.724Z,11.50
2019-04-25T05:15:29.325Z,11.50
2019-04-25T05:17:58.948Z,11.60
2019-04-25T05:20:28.566Z,11.80
2019-04-25T05:22:58.195Z,12.00
2019-04-25T05:25:27.805Z,12.20
2019-04-25T05:28:02.776Z,12.50
2019-04-25T05:30:30.475Z,12.70
2019-04-25T05:33:00.078Z,12.80
2019-04-25T05:35:29.742Z,13.00
2019-04-25T05:37:59.443Z,13.10
2019-04-25T05:40:29.074Z,13.00
2019-04-25T05:43:00.336Z,13.20
2019-04-25T05:45:31.407Z,13.40
2019-04-25T05:48:01.044Z,13.60
2019-04-25T05:50:30.708Z,14.00
2019-04-25T05:53:00.374Z,14.40
2019-04-25T05:55:29.972Z,14.70
2019-04-25T05:57:59.663Z,14.90
2019-04-25T06:00:29.427Z,15.00
2019-04-25T06:02:59.049Z,15.00
2019-04-25T06:05:28.711Z,15.20
2019-04-25T06:07:58.338Z,15.60
2019-04-25T06:10:36.576Z,16.00
2019-04-25T06:13:26.429Z,16.40
2019-04-25T06:15:57.114Z,16.60
2019-04-25T06:18:32.062Z,16.70
2019-04-25T06:21:03.101Z,16.60
2019-04-25T06:23:34.544Z,16.70
2019-04-25T06:26:19.195Z,17.00
2019-04-25T06:28:35.493Z,17.30
2019-04-25T06:31:10.067Z,17.50
2019-04-25T06:33:36.750Z,17.70
2019-04-25T06:36:06.384Z,18.00
2019-04-25T06:38:36.016Z,18.40
2019-04-25T06:41:05.825Z,18.90
2019-04-25T06:43:37.100Z,19.30
2019-04-25T06:46:21.081Z,19.60
2019-04-25T06:49:00.823Z,19.90
2019-04-25T06:51:44.009Z,20.10
2019-04-25T06:54:15.280Z,20.20
2019-04-25T06:56:44.988Z,20.20
2019-04-25T06:59:14.844Z,20.30
2019-04-25T07:01:44.655Z,20.30
2019-04-25T07:04:14.495Z,20.40
2019-04-25T07:06:45.582Z,20.40
2019-04-25T07:09:15.315Z,20.60
2019-04-25T07:11:45.033Z,20.50
2019-04-25T07:14:14.669Z,20.50
2019-04-25T07:16:44.276Z,20.60
2019-04-25T07:19:15.266Z,20.80
2019-04-25T07:21:45.462Z,20.70
2019-04-25T07:24:17.419Z,20.90
2019-04-25T07:26:54.066Z,20.90
2019-04-25T07:29:43.209Z,21.00
2019-04-25T07:32:20.409Z,21.10
2019-04-25T07:34:50.295Z,21.30
2019-04-25T07:37:19.895Z,21.30
2019-04-25T07:39:49.534Z,21.30
2019-04-25T07:42:19.128Z,21.20
2019-04-25T07:44:52.692Z,21.30
2019-04-25T07:47:20.147Z,21.30
2019-04-25T07:49:49.728Z,21.40
2019-04-25T07:52:19.356Z,21.40
2019-04-25T07:54:48.948Z,21.50
2019-04-25T07:57:18.581Z,21.60
2019-04-25T07:59:51.605Z,21.70
2019-04-25T08:02:20.545Z,21.90
2019-04-25T08:04:50.192Z,22.10
2019-04-25T08:07:19.852Z,22.10
2019-04-25T08:09:49.551Z,22.10
2019-04-25T08:12:19.232Z,22.10
2019-04-25T08:14:54.226Z,22.00
2019-04-25T08:17:41.402Z,22.00
2019-04-25T08:20:13.552Z,22.20
2019-04-25T08:22:55.713Z,22.30
2019-04-25T08:25:17.428Z,22.40
2019-04-25T08:27:47.199Z,22.40
2019-04-25T08:30:31.424Z,22.50
2019-04-25T08:33:01.177Z,22.40
2019-04-25T08:35:31.678Z,22.40
2019-04-25T08:38:01.331Z,22.40
2019-04-25T08:40:32.597Z,22.40
2019-04-25T08:43:03.567Z,22.40
2019-04-25T08:45:35.675Z,22.50
2019-04-25T08:48:06.562Z,22.70
2019-04-25T08:50:53.696Z,22.80
2019-04-25T08:53:25.044Z,22.90
2019-04-25T08:56:05.037Z,23.00
2019-04-25T08:59:01.453Z,23.00
2019-04-25T09:01:23.618Z,22.90
2019-04-25T09:03:55.043Z,22.90
2019-04-25T09:06:24.711Z,22.90
2019-04-25T09:08:54.308Z,22.80
2019-04-25T09:11:24.465Z,22.80
2019-04-25T09:13:54.103Z,22.80
2019-04-25T09:16:24.032Z,23.00
2019-04-25T09:18:54.056Z,23.10
2019-04-25T09:21:23.930Z,23.00
2019-04-25T09:23:53.655Z,23.00
2019-04-25T09:26:24.120Z,23.20
2019-04-25T09:28:53.871Z,23.30
2019-04-25T09:31:23.745Z,23.50
2019-04-25T09:33:55.113Z,23.40
2019-04-25T09:36:24.818Z,23.30
2019-04-25T09:38:56.244Z,23.40
2019-04-25T09:41:26.108Z,23.50
2019-04-25T09:43:57.519Z,23.50
2019-04-25T09:46:31.594Z,23.40
2019-04-25T09:49:06.060Z,23.40
2019-04-25T09:51:37.598Z,23.40
2019-04-25T09:54:25.290Z,23.30
2019-04-25T09:56:56.725Z,23.30
2019-04-25T09:59:29.376Z,23.20
2019-04-25T10:01:58.139Z,23.10
2019-04-25T10:04:28.099Z,23.20
2019-04-25T10:06:57.989Z,23.10
2019-04-25T10:09:28.186Z,23.00
2019-04-25T10:11:57.819Z,23.10
2019-04-25T10:14:40.891Z,23.10
2019-04-25T10:17:10.657Z,23.20
2019-04-25T10:19:41.141Z,23.30
2019-04-25T10:22:10.909Z,23.30
2019-04-25T10:24:40.607Z,23.40
2019-04-25T10:27:10.412Z,23.50
2019-04-25T10:29:47.318Z,23.50
2019-04-25T10:32:13.024Z,23.60
2019-04-25T10:34:45.154Z,23.60
2019-04-25T10:37:16.757Z,23.80
2019-04-25T10:39:46.547Z,23.80
2019-04-25T10:42:16.523Z,24.00
2019-04-25T10:44:47.093Z,23.90
2019-04-25T10:47:17.197Z,23.90
2019-04-25T10:49:47.330Z,23.90
2019-04-25T10:52:17.229Z,23.90
2019-04-25T10:54:47.891Z,24.00
2019-04-25T10:57:17.897Z,24.10
2019-04-25T11:00:00.707Z,24.20
2019-04-25T11:02:19.142Z,24.40
2019-04-25T11:04:54.520Z,24.40
2019-04-25T11:07:24.222Z,24.30
2019-04-25T11:09:55.126Z,24.30
2019-04-25T11:12:25.106Z,24.20
2019-04-25T11:14:56.113Z,24.20
2019-04-25T11:17:25.930Z,24.20
2019-04-25T11:19:55.658Z,24.20
2019-04-25T11:22:25.266Z,24.20
2019-04-25T11:24:54.860Z,24.30
2019-04-25T11:27:25.114Z,24.40
2019-04-25T11:30:08.208Z,24.50
2019-04-25T11:32:28.685Z,24.50
2019-04-25T11:34:58.278Z,24.50
2019-04-25T11:37:31.030Z,24.40
2019-04-25T11:40:04.135Z,24.30
2019-04-25T11:42:33.982Z,24.40
2019-04-25T11:45:06.022Z,24.50
2019-04-25T11:47:36.279Z,24.60
2019-04-25T11:50:08.958Z,24.80
2019-04-25T11:52:38.841Z,25.00
2019-04-25T11:55:09.447Z,25.10
2019-04-25T11:57:39.451Z,25.10
2019-04-25T12:00:21.619Z,25.20
2019-04-25T12:02:43.947Z,25.00
2019-04-25T12:05:15.102Z,25.00
2019-04-25T12:07:45.438Z,25.10
2019-04-25T12:10:17.420Z,25.20
2019-04-25T12:12:47.363Z,25.30
2019-04-25T12:15:17.264Z,25.40
2019-04-25T12:17:47.439Z,25.30
2019-04-25T12:20:17.379Z,25.30
2019-04-25T12:22:46.974Z,25.30
2019-04-25T12:25:16.753Z,25.30
2019-04-25T12:27:48.601Z,25.20
2019-04-25T12:30:18.721Z,25.30
2019-04-25T12:32:48.454Z,25.40
2019-04-25T12:35:18.159Z,25.40
2019-04-25T12:37:48.144Z,25.30
2019-04-25T12:40:18.074Z,25.50
2019-04-25T12:42:47.940Z,25.60
2019-04-25T12:45:19.328Z,25.70
2019-04-25T12:47:50.786Z,25.70
2019-04-25T12:50:20.683Z,25.60
2019-04-25T12:52:50.589Z,25.40
2019-04-25T12:55:20.614Z,25.40
2019-04-25T12:57:51.361Z,25.30
2019-04-25T13:00:26.057Z,25.40
2019-04-25T13:02:56.568Z,25.40
2019-04-25T13:05:26.345Z,25.30
2019-04-25T13:07:58.593Z,25.20
2019-04-25T13:10:27.382Z,25.20
2019-04-25T13:12:57.064Z,25.20
2019-04-25T13:15:27.049Z,25.30
2019-04-25T13:17:57.143Z,25.20
2019-04-25T13:20:26.770Z,25.10
2019-04-25T13:22:56.413Z,25.10
2019-04-25T13:25:26.079Z,25.00
2019-04-25T13:28:14.422Z,25.10
2019-04-25T13:31:10.011Z,25.00
2019-04-25T13:33:37.583Z,25.00
2019-04-25T13:36:08.827Z,25.00
2019-04-25T13:38:38.527Z,25.00
2019-04-25T13:41:08.134Z,25.00
2019-04-25T13:43:37.753Z,24.90
2019-04-25T13:46:07.424Z,25.00
2019-04-25T13:48:37.134Z,25.00
2019-04-25T13:51:06.839Z,25.00
2019-04-25T13:53:36.439Z,25.00
2019-04-25T13:56:06.346Z,25.00
2019-04-25T13:58:36.028Z,25.00
2019-04-25T14:01:12.831Z,25.00
2019-04-25T14:03:38.094Z,25.10
2019-04-25T14:06:08.233Z,25.00
2019-04-25T14:08:37.831Z,25.00
2019-04-25T14:11:07.835Z,24.90
2019-04-25T14:13:37.434Z,24.80
2019-04-25T14:16:19.523Z,24.70
2019-04-25T14:18:53.723Z,24.60
2019-04-25T14:21:24.637Z,24.60
2019-04-25T14:23:54.736Z,24.60
2019-04-25T14:26:25.098Z,24.60
2019-04-25T14:28:54.719Z,24.60
2019-04-25T14:31:38.902Z,24.60
2019-04-25T14:33:56.611Z,24.50
2019-04-25T14:36:27.709Z,24.30
2019-04-25T14:38:57.574Z,24.10
2019-04-25T14:41:28.114Z,24.00
2019-04-25T14:43:57.813Z,24.00
2019-04-25T14:46:27.826Z,24.00
2019-04-25T14:48:57.409Z,24.00
2019-04-25T14:51:28.116Z,24.00
2019-04-25T14:53:59.399Z,24.10
2019-04-25T14:56:39.765Z,24.10
2019-04-25T14:59:09.372Z,24.10
2019-04-25T15:01:44.968Z,24.30
2019-04-25T15:04:10.595Z,24.40
2019-04-25T15:06:40.236Z,24.50
2019-04-25T15:09:10.011Z,24.50
2019-04-25T15:11:39.642Z,24.60
2019-04-25T15:14:09.325Z,24.50
2019-04-25T15:16:38.959Z,24.30
2019-04-25T15:19:08.554Z,24.00
2019-04-25T15:21:38.259Z,23.80
2019-04-25T15:24:07.894Z,23.80
2019-04-25T15:26:40.181Z,23.70
2019-04-25T15:29:08.891Z,23.70
2019-04-25T15:31:38.488Z,23.70
2019-04-25T15:34:08.124Z,23.90
2019-04-25T15:36:41.955Z,24.00
2019-04-25T15:39:29.675Z,23.90
2019-04-25T15:41:59.040Z,23.90
2019-04-25T15:44:33.234Z,23.90
2019-04-25T15:47:04.410Z,24.00
2019-04-25T15:49:34.568Z,24.00
2019-04-25T15:52:05.798Z,24.00
2019-04-25T15:54:35.430Z,24.10
2019-04-25T15:57:05.699Z,24.00
2019-04-25T15:59:37.417Z,23.80
2019-04-25T16:02:08.755Z,23.60
2019-04-25T16:04:38.510Z,23.60
2019-04-25T16:07:08.175Z,23.50
2019-04-25T16:09:37.862Z,23.50
2019-04-25T16:12:08.227Z,23.30
2019-04-25T16:14:38.956Z,23.10
2019-04-25T16:17:08.719Z,22.90
2019-04-25T16:19:38.479Z,22.80
2019-04-25T16:22:08.112Z,22.80
2019-04-25T16:24:37.784Z,22.80
2019-04-25T16:27:09.069Z,22.70
2019-04-25T16:29:38.719Z,22.60
2019-04-25T16:32:19.997Z,22.50
2019-04-25T16:34:42.063Z,22.40
2019-04-25T16:37:11.656Z,22.40
2019-04-25T16:39:42.963Z,22.30
2019-04-25T16:42:12.774Z,22.30
2019-04-25T16:44:42.370Z,22.20
2019-04-25T16:47:13.442Z,22.10
2019-04-25T16:49:43.079Z,22.10
2019-04-25T16:52:13.712Z,22.10
2019-04-25T16:54:43.393Z,22.00
2019-04-25T16:57:13.058Z,22.10
2019-04-25T16:59:42.763Z,22.00
2019-04-25T17:02:12.704Z,22.20
2019-04-25T17:04:42.439Z,22.20
2019-04-25T17:07:12.247Z,22.20
2019-04-25T17:09:42.822Z,22.20
2019-04-25T17:12:12.911Z,22.20
2019-04-25T17:14:44.246Z,22.10
2019-04-25T17:17:18.265Z,22.10
2019-04-25T17:19:52.340Z,22.00
2019-04-25T17:22:22.342Z,21.90
2019-04-25T17:24:51.981Z,21.80
2019-04-25T17:27:22.265Z,21.70
2019-04-25T17:29:51.974Z,21.70
2019-04-25T17:32:51.177Z,21.60
2019-04-25T17:35:10.935Z,21.50
2019-04-25T17:37:58.310Z,21.40
2019-04-25T17:40:29.623Z,21.40
2019-04-25T17:43:10.432Z,21.40
2019-04-25T17:45:33.353Z,21.40
2019-04-25T17:48:03.192Z,21.30
2019-04-25T17:50:32.985Z,21.10
2019-04-25T17:53:03.066Z,21.00
2019-04-25T17:55:33.347Z,20.90
2019-04-25T17:58:03.280Z,20.80
2019-04-25T18:00:35.307Z,20.80
2019-04-25T18:03:07.202Z,20.70
2019-04-25T18:05:36.870Z,20.70
2019-04-25T18:08:06.716Z,20.60
2019-04-25T18:10:37.637Z,20.60
2019-04-25T18:13:09.439Z,20.50
2019-04-25T18:15:56.777Z,20.40
2019-04-25T18:18:30.772Z,20.40
2019-04-25T18:21:00.389Z,20.40
2019-04-25T18:23:43.948Z,20.40
2019-04-25T18:26:25.094Z,20.30
2019-04-25T18:28:56.397Z,20.30
2019-04-25T18:31:26.075Z,20.30
2019-04-25T18:33:57.376Z,20.20
2019-04-25T18:36:31.558Z,20.20
2019-04-25T18:39:18.809Z,20.20
2019-04-25T18:41:55.545Z,20.20
2019-04-25T18:44:25.161Z,20.10
2019-04-25T18:46:54.830Z,20.20
2019-04-25T18:49:24.462Z,20.10
2019-04-25T18:51:58.094Z,20.10
2019-04-25T18:54:34.582Z,20.10
2019-04-25T18:57:06.027Z,20.10
2019-04-25T18:59:52.965Z,20.10
2019-04-25T19:02:36.140Z,20.00
2019-04-25T19:05:08.514Z,20.10
2019-04-25T19:07:38.606Z,20.10
2019-04-25T19:10:09.401Z,20.10
2019-04-25T19:12:40.198Z,20.10
2019-04-25T19:15:10.626Z,20.10
2019-04-25T19:17:41.282Z,20.00
2019-04-25T19:20:11.275Z,20.00
2019-04-25T19:22:41.521Z,20.00
2019-04-25T19:25:11.348Z,20.00
2019-04-25T19:27:42.033Z,20.00
2019-04-25T19:30:13.641Z,20.00
2019-04-25T19:32:43.346Z,19.90
2019-04-25T19:35:13.160Z,19.90
2019-04-25T19:37:43.798Z,19.80
2019-04-25T19:40:30.287Z,19.70
2019-04-25T19:43:06.300Z,19.70
2019-04-25T19:45:35.964Z,19.70
2019-04-25T19:48:05.623Z,19.70
2019-04-25T19:50:35.259Z,19.70
2019-04-25T19:53:04.924Z,19.70
2019-04-25T19:55:34.643Z,19.70
2019-04-25T19:58:04.410Z,19.60
2019-04-25T20:00:36.862Z,19.50
2019-04-25T20:03:19.163Z,19.40
2019-04-25T20:05:50.508Z,19.30
2019-04-25T20:08:27.329Z,19.20
2019-04-25T20:11:04.243Z,19.20
2019-04-25T20:13:33.894Z,19.20
2019-04-25T20:16:03.564Z,19.20
2019-04-25T20:18:33.196Z,19.10
2019-04-25T20:21:02.838Z,19.10
2019-04-25T20:23:32.446Z,19.10
2019-04-25T20:26:02.078Z,19.10
2019-04-25T20:28:31.680Z,19.10
2019-04-25T20:31:01.309Z,19.10
2019-04-25T20:33:30.906Z,19.20
2019-04-25T20:36:00.535Z,19.10
2019-04-25T20:38:30.143Z,19.20
2019-04-25T20:40:59.787Z,19.20
2019-04-25T20:43:29.415Z,19.10
2019-04-25T20:45:59.078Z,19.10
2019-04-25T20:48:28.709Z,19.10
2019-04-25T20:50:58.350Z,19.10
2019-04-25T20:53:27.986Z,19.00
2019-04-25T20:55:57.588Z,18.90
2019-04-25T20:58:27.232Z,19.00
2019-04-25T21:00:58.501Z,19.00
2019-04-25T21:03:28.099Z,19.00
2019-04-25T21:05:59.380Z,19.00
2019-04-25T21:08:28.977Z,19.10
2019-04-25T21:10:58.571Z,19.00
2019-04-25T21:13:32.521Z,19.00
2019-04-25T21:16:06.507Z,19.10
2019-04-25T21:18:37.747Z,19.00
2019-04-25T21:21:07.386Z,18.90
2019-04-25T21:23:37.019Z,18.90
2019-04-25T21:26:06.608Z,18.80
2019-04-25T21:28:36.246Z,18.90
2019-04-25T21:31:06.087Z,18.80
2019-04-25T21:33:35.695Z,18.80
2019-04-25T21:36:05.659Z,18.70
2019-04-25T21:38:35.574Z,18.70
2019-04-25T21:41:09.459Z,18.70
2019-04-25T21:43:40.912Z,18.70
2019-04-25T21:46:10.788Z,18.70
2019-04-25T21:48:40.683Z,18.70
2019-04-25T21:51:27.784Z,18.70
2019-04-25T21:53:57.532Z,18.70
2019-04-25T21:56:27.436Z,18.70
2019-04-25T21:58:57.762Z,18.70
2019-04-25T22:01:30.468Z,18.70
2019-04-25T22:04:00.719Z,18.70
2019-04-25T22:06:30.739Z,18.70
2019-04-25T22:09:00.834Z,18.60
2019-04-25T22:11:30.715Z,18.60
2019-04-25T22:14:01.372Z,18.60
2019-04-25T22:16:31.307Z,18.60
2019-04-25T22:19:02.028Z,18.60
2019-04-25T22:21:38.098Z,18.60
2019-04-25T22:24:12.828Z,18.60
2019-04-25T22:26:35.443Z,18.60
2019-04-25T22:29:05.757Z,18.70
2019-04-25T22:31:38.228Z,18.60
2019-04-25T22:34:09.531Z,18.60
2019-04-25T22:36:39.409Z,18.60
2019-04-25T22:39:11.054Z,18.50
2019-04-25T22:41:46.474Z,18.40
2019-04-25T22:44:17.646Z,18.40
2019-04-25T22:46:48.040Z,18.40
2019-04-25T22:49:17.672Z,18.40
2019-04-25T22:51:47.268Z,18.30
2019-04-25T22:54:17.178Z,18.30
2019-04-25T22:56:46.800Z,18.30
2019-04-25T22:59:16.709Z,18.30
2019-04-25T23:01:50.954Z,18.30
2019-04-25T23:04:38.139Z,18.30
2019-04-25T23:07:07.971Z,18.20
2019-04-25T23:09:38.735Z,18.20
2019-04-25T23:12:08.789Z,18.20
2019-04-25T23:14:38.738Z,18.20
2019-04-25T23:17:09.379Z,18.30
2019-04-25T23:19:39.423Z,18.30
2019-04-25T23:22:09.491Z,18.20
2019-04-25T23:24:40.839Z,18.20
2019-04-25T23:27:15.586Z,18.20
2019-04-25T23:29:45.179Z,18.30
2019-04-25T23:32:15.093Z,18.50
2019-04-25T23:34:44.694Z,18.60
2019-04-25T23:37:15.202Z,18.60
2019-04-25T23:39:45.055Z,18.60
2019-04-25T23:42:15.582Z,18.60
2019-04-25T23:44:45.615Z,18.50
2019-04-25T23:47:16.330Z,18.50
2019-04-25T23:49:46.027Z,18.40
2019-04-25T23:52:17.167Z,18.20
2019-04-25T23:54:46.865Z,18.10
2019-04-25T23:57:17.741Z,17.90
2019-04-25T23:59:47.471Z,17.80
